sensor_id;sensor_type;location;lat;lon;timestamp;pressure;altitude;pressure_sealevel;temperature;humidity
64628;BME280;68467;50.960;0.314;2023-12-20T00:00:35;100459.01;;;4.14;100.00
64628;BME280;68467;50.960;0.314;2023-12-20T00:03:02;100459.30;;;3.96;100.00
64628;BME280;68467;50.960;0.314;2023-12-20T00:05:30;100462.08;;;4.02;100.00
64628;BME280;68467;50.960;0.314;2023-12-20T00:07:58;100464.58;;;3.97;100.00
64628;BME280;68467;50.960;0.314;2023-12-20T00:10:29;100460.32;;;3.61;100.00
64628;BME280;68467;50.960;0.314;2023-12-20T00:12:57;100461.86;;;3.56;100.00
64628;BME280;68467;50.960;0.314;2023-12-20T00:15:25;100465.58;;;4.62;100.00
64628;BME280;68467;50.960;0.314;2023-12-20T00:17:53;100465.91;;;4.00;100.00
64628;BME280;68467;50.960;0.314;2023-12-20T00:20:21;100465.40;;;3.94;100.00
64628;BME280;68467;50.960;0.314;2023-12-20T00:22:49;100464.65;;;4.39;100.00
64628;BME280;68467;50.960;0.314;2023-12-20T00:25:17;100464.32;;;3.63;100.00
64628;BME280;68467;50.960;0.314;2023-12-20T00:27:45;100465.02;;;3.87;100.00
64628;BME280;68467;50.960;0.314;2023-12-20T00:30:12;100470.82;;;3.91;100.00
64628;BME280;68467;50.960;0.314;2023-12-20T00:32:39;100475.73;;;3.58;100.00
64628;BME280;68467;50.960;0.314;2023-12-20T00:35:07;100474.30;;;3.68;100.00
64628;BME280;68467;50.960;0.314;2023-12-20T00:37:34;100476.18;;;3.74;100.00
64628;BME280;68467;50.960;0.314;2023-12-20T00:40:01;100475.42;;;3.51;100.00
64628;BME280;68467;50.960;0.314;2023-12-20T00:42:29;100466.38;;;3.81;100.00
64628;BME280;68467;50.960;0.314;2023-12-20T00:44:56;100466.66;;;4.17;100.00
64628;BME280;68467;50.960;0.314;2023-12-20T00:47:23;100464.61;;;3.91;100.00
64628;BME280;68467;50.960;0.314;2023-12-20T00:49:51;100469.66;;;3.80;100.00
64628;BME280;68467;50.960;0.314;2023-12-20T00:52:18;100472.71;;;3.32;100.00
64628;BME280;68467;50.960;0.314;2023-12-20T00:54:46;100472.09;;;3.18;100.00
64628;BME280;68467;50.960;0.314;2023-12-20T00:57:13;100467.70;;;3.42;100.00
64628;BME280;68467;50.960;0.314;2023-12-20T00:59:42;100468.93;;;3.24;100.00
64628;BME280;68467;50.960;0.314;2023-12-20T01:02:09;100465.50;;;3.73;100.00
64628;BME280;68467;50.960;0.314;2023-12-20T01:04:35;100470.66;;;3.33;100.00
64628;BME280;68467;50.960;0.314;2023-12-20T01:07:03;100479.11;;;3.11;100.00
64628;BME280;68467;50.960;0.314;2023-12-20T01:09:30;100467.62;;;3.36;100.00
64628;BME280;68467;50.960;0.314;2023-12-20T01:11:57;100466.23;;;3.03;100.00
64628;BME280;68467;50.960;0.314;2023-12-20T01:14:25;100457.65;;;2.86;100.00
64628;BME280;68467;50.960;0.314;2023-12-20T01:16:52;100460.45;;;3.11;100.00
64628;BME280;68467;50.960;0.314;2023-12-20T01:19:20;100460.85;;;3.12;100.00
64628;BME280;68467;50.960;0.314;2023-12-20T01:21:47;100463.28;;;3.04;100.00
64628;BME280;68467;50.960;0.314;2023-12-20T01:24:14;100461.85;;;3.02;100.00
64628;BME280;68467;50.960;0.314;2023-12-20T01:26:41;100454.51;;;3.38;100.00
64628;BME280;68467;50.960;0.314;2023-12-20T01:29:08;100460.04;;;2.92;100.00
64628;BME280;68467;50.960;0.314;2023-12-20T01:31:36;100454.45;;;3.11;100.00
64628;BME280;68467;50.960;0.314;2023-12-20T01:34:04;100461.58;;;2.97;100.00
64628;BME280;68467;50.960;0.314;2023-12-20T01:36:32;100464.14;;;3.21;100.00
64628;BME280;68467;50.960;0.314;2023-12-20T01:38:59;100457.98;;;2.96;100.00
64628;BME280;68467;50.960;0.314;2023-12-20T01:41:26;100461.96;;;2.91;100.00
64628;BME280;68467;50.960;0.314;2023-12-20T01:43:54;100452.83;;;3.30;100.00
64628;BME280;68467;50.960;0.314;2023-12-20T01:46:21;100453.35;;;3.31;100.00
64628;BME280;68467;50.960;0.314;2023-12-20T01:48:49;100457.58;;;2.73;100.00
64628;BME280;68467;50.960;0.314;2023-12-20T01:51:17;100448.81;;;3.40;100.00
64628;BME280;68467;50.960;0.314;2023-12-20T01:53:44;100450.35;;;2.88;100.00
64628;BME280;68467;50.960;0.314;2023-12-20T01:56:12;100455.40;;;3.23;100.00
64628;BME280;68467;50.960;0.314;2023-12-20T01:58:44;100460.80;;;3.29;100.00
64628;BME280;68467;50.960;0.314;2023-12-20T02:01:12;100459.62;;;3.27;100.00
64628;BME280;68467;50.960;0.314;2023-12-20T02:03:39;100462.91;;;3.54;100.00
64628;BME280;68467;50.960;0.314;2023-12-20T02:06:08;100466.58;;;3.68;100.00
64628;BME280;68467;50.960;0.314;2023-12-20T02:08:36;100460.24;;;3.51;100.00
64628;BME280;68467;50.960;0.314;2023-12-20T02:11:03;100468.39;;;3.38;100.00
64628;BME280;68467;50.960;0.314;2023-12-20T02:13:30;100452.71;;;3.21;100.00
64628;BME280;68467;50.960;0.314;2023-12-20T02:15:58;100452.00;;;3.09;100.00
64628;BME280;68467;50.960;0.314;2023-12-20T02:18:24;100454.87;;;3.06;100.00
64628;BME280;68467;50.960;0.314;2023-12-20T02:20:52;100454.34;;;2.65;100.00
64628;BME280;68467;50.960;0.314;2023-12-20T02:23:19;100452.44;;;3.03;100.00
64628;BME280;68467;50.960;0.314;2023-12-20T02:25:47;100453.37;;;3.01;100.00
64628;BME280;68467;50.960;0.314;2023-12-20T02:28:14;100452.10;;;2.86;100.00
64628;BME280;68467;50.960;0.314;2023-12-20T02:30:42;100447.64;;;3.21;100.00
64628;BME280;68467;50.960;0.314;2023-12-20T02:33:12;100447.86;;;3.23;100.00
64628;BME280;68467;50.960;0.314;2023-12-20T02:35:41;100448.09;;;3.32;100.00
64628;BME280;68467;50.960;0.314;2023-12-20T02:38:07;100450.54;;;2.74;100.00
64628;BME280;68467;50.960;0.314;2023-12-20T02:40:35;100444.60;;;3.01;100.00
64628;BME280;68467;50.960;0.314;2023-12-20T02:43:02;100442.27;;;2.87;100.00
64628;BME280;68467;50.960;0.314;2023-12-20T02:45:29;100442.95;;;2.98;100.00
64628;BME280;68467;50.960;0.314;2023-12-20T02:47:56;100448.09;;;3.37;100.00
64628;BME280;68467;50.960;0.314;2023-12-20T02:50:24;100452.82;;;3.21;100.00
64628;BME280;68467;50.960;0.314;2023-12-20T02:52:51;100448.60;;;2.98;100.00
64628;BME280;68467;50.960;0.314;2023-12-20T02:55:18;100436.61;;;3.39;100.00
64628;BME280;68467;50.960;0.314;2023-12-20T02:57:45;100441.00;;;3.64;100.00
64628;BME280;68467;50.960;0.314;2023-12-20T03:00:13;100437.25;;;3.25;100.00
64628;BME280;68467;50.960;0.314;2023-12-20T03:02:42;100439.61;;;3.56;100.00
64628;BME280;68467;50.960;0.314;2023-12-20T03:05:09;100440.84;;;3.66;100.00
64628;BME280;68467;50.960;0.314;2023-12-20T03:07:36;100448.21;;;3.60;100.00
64628;BME280;68467;50.960;0.314;2023-12-20T03:10:05;100452.51;;;3.39;100.00
64628;BME280;68467;50.960;0.314;2023-12-20T03:12:32;100448.72;;;3.27;100.00
64628;BME280;68467;50.960;0.314;2023-12-20T03:14:59;100445.51;;;3.62;100.00
64628;BME280;68467;50.960;0.314;2023-12-20T03:17:27;100442.96;;;3.66;100.00
64628;BME280;68467;50.960;0.314;2023-12-20T03:19:55;100438.33;;;3.64;100.00
64628;BME280;68467;50.960;0.314;2023-12-20T03:22:22;100443.89;;;3.50;100.00
64628;BME280;68467;50.960;0.314;2023-12-20T03:24:49;100439.62;;;3.65;100.00
64628;BME280;68467;50.960;0.314;2023-12-20T03:27:16;100440.62;;;3.54;100.00
64628;BME280;68467;50.960;0.314;2023-12-20T03:29:43;100440.47;;;3.60;100.00
64628;BME280;68467;50.960;0.314;2023-12-20T03:32:11;100435.73;;;3.68;100.00
64628;BME280;68467;50.960;0.314;2023-12-20T03:34:38;100430.04;;;3.43;100.00
64628;BME280;68467;50.960;0.314;2023-12-20T03:37:05;100427.07;;;2.87;100.00
64628;BME280;68467;50.960;0.314;2023-12-20T03:39:32;100430.53;;;3.53;100.00
64628;BME280;68467;50.960;0.314;2023-12-20T03:42:00;100429.10;;;3.46;100.00
64628;BME280;68467;50.960;0.314;2023-12-20T03:44:27;100427.16;;;3.79;100.00
64628;BME280;68467;50.960;0.314;2023-12-20T03:46:54;100428.91;;;3.44;100.00
64628;BME280;68467;50.960;0.314;2023-12-20T03:49:21;100429.14;;;3.09;100.00
64628;BME280;68467;50.960;0.314;2023-12-20T03:51:48;100431.68;;;3.12;100.00
64628;BME280;68467;50.960;0.314;2023-12-20T03:54:15;100430.68;;;3.21;100.00
64628;BME280;68467;50.960;0.314;2023-12-20T03:56:42;100431.30;;;3.08;100.00
64628;BME280;68467;50.960;0.314;2023-12-20T03:59:09;100427.38;;;3.44;100.00
64628;BME280;68467;50.960;0.314;2023-12-20T04:01:36;100430.36;;;3.11;100.00
64628;BME280;68467;50.960;0.314;2023-12-20T04:04:04;100427.66;;;2.70;100.00
64628;BME280;68467;50.960;0.314;2023-12-20T04:06:31;100427.37;;;3.28;100.00
64628;BME280;68467;50.960;0.314;2023-12-20T04:08:58;100431.56;;;3.51;100.00
64628;BME280;68467;50.960;0.314;2023-12-20T04:11:25;100430.66;;;3.30;100.00
64628;BME280;68467;50.960;0.314;2023-12-20T04:13:52;100438.27;;;2.79;100.00
64628;BME280;68467;50.960;0.314;2023-12-20T04:16:20;100437.11;;;3.07;100.00
64628;BME280;68467;50.960;0.314;2023-12-20T04:18:47;100443.40;;;3.20;100.00
64628;BME280;68467;50.960;0.314;2023-12-20T04:21:14;100440.68;;;3.03;100.00
64628;BME280;68467;50.960;0.314;2023-12-20T04:23:41;100439.19;;;3.42;100.00
64628;BME280;68467;50.960;0.314;2023-12-20T04:26:08;100432.10;;;3.27;100.00
64628;BME280;68467;50.960;0.314;2023-12-20T04:28:35;100433.96;;;3.36;100.00
64628;BME280;68467;50.960;0.314;2023-12-20T04:31:03;100434.03;;;3.21;100.00
64628;BME280;68467;50.960;0.314;2023-12-20T04:33:30;100438.88;;;3.64;100.00
64628;BME280;68467;50.960;0.314;2023-12-20T04:35:57;100443.62;;;3.50;100.00
64628;BME280;68467;50.960;0.314;2023-12-20T04:38:24;100445.52;;;3.42;100.00
64628;BME280;68467;50.960;0.314;2023-12-20T04:40:52;100442.05;;;2.98;100.00
64628;BME280;68467;50.960;0.314;2023-12-20T04:43:18;100444.56;;;3.02;100.00
64628;BME280;68467;50.960;0.314;2023-12-20T04:45:45;100441.36;;;3.18;100.00
64628;BME280;68467;50.960;0.314;2023-12-20T04:48:13;100433.36;;;3.47;100.00
64628;BME280;68467;50.960;0.314;2023-12-20T04:50:40;100426.17;;;3.14;100.00
64628;BME280;68467;50.960;0.314;2023-12-20T04:53:07;100425.58;;;3.27;100.00
64628;BME280;68467;50.960;0.314;2023-12-20T04:55:34;100426.23;;;3.43;100.00
64628;BME280;68467;50.960;0.314;2023-12-20T04:58:02;100421.95;;;3.03;100.00
64628;BME280;68467;50.960;0.314;2023-12-20T05:00:29;100416.81;;;3.29;100.00
64628;BME280;68467;50.960;0.314;2023-12-20T05:02:56;100418.20;;;3.01;100.00
64628;BME280;68467;50.960;0.314;2023-12-20T05:05:23;100424.49;;;3.07;100.00
64628;BME280;68467;50.960;0.314;2023-12-20T05:07:50;100422.17;;;3.32;100.00
64628;BME280;68467;50.960;0.314;2023-12-20T05:10:17;100419.52;;;3.30;100.00
64628;BME280;68467;50.960;0.314;2023-12-20T05:12:45;100417.77;;;3.33;100.00
64628;BME280;68467;50.960;0.314;2023-12-20T05:15:12;100413.17;;;3.63;100.00
64628;BME280;68467;50.960;0.314;2023-12-20T05:17:39;100417.21;;;3.03;100.00
64628;BME280;68467;50.960;0.314;2023-12-20T05:20:08;100413.06;;;3.36;100.00
64628;BME280;68467;50.960;0.314;2023-12-20T05:22:35;100411.11;;;3.25;100.00
64628;BME280;68467;50.960;0.314;2023-12-20T05:25:03;100414.95;;;3.35;100.00
64628;BME280;68467;50.960;0.314;2023-12-20T05:27:31;100422.05;;;3.50;100.00
64628;BME280;68467;50.960;0.314;2023-12-20T05:29:58;100420.43;;;3.68;100.00
64628;BME280;68467;50.960;0.314;2023-12-20T05:32:25;100419.87;;;3.43;100.00
64628;BME280;68467;50.960;0.314;2023-12-20T05:34:52;100424.96;;;3.00;100.00
64628;BME280;68467;50.960;0.314;2023-12-20T05:37:19;100428.48;;;3.46;100.00
64628;BME280;68467;50.960;0.314;2023-12-20T05:39:46;100424.97;;;3.48;100.00
64628;BME280;68467;50.960;0.314;2023-12-20T05:42:14;100423.45;;;3.43;100.00
64628;BME280;68467;50.960;0.314;2023-12-20T05:44:41;100419.17;;;3.34;100.00
64628;BME280;68467;50.960;0.314;2023-12-20T05:47:09;100416.50;;;3.80;100.00
64628;BME280;68467;50.960;0.314;2023-12-20T05:49:36;100418.48;;;3.26;100.00
64628;BME280;68467;50.960;0.314;2023-12-20T05:52:03;100411.19;;;3.39;100.00
64628;BME280;68467;50.960;0.314;2023-12-20T05:54:31;100410.44;;;3.07;100.00
64628;BME280;68467;50.960;0.314;2023-12-20T05:56:58;100407.80;;;3.17;100.00
64628;BME280;68467;50.960;0.314;2023-12-20T05:59:25;100409.63;;;2.98;100.00
64628;BME280;68467;50.960;0.314;2023-12-20T06:01:53;100408.22;;;3.13;100.00
64628;BME280;68467;50.960;0.314;2023-12-20T06:04:20;100402.04;;;3.25;100.00
64628;BME280;68467;50.960;0.314;2023-12-20T06:06:47;100404.65;;;3.72;100.00
64628;BME280;68467;50.960;0.314;2023-12-20T06:09:14;100404.05;;;3.03;100.00
64628;BME280;68467;50.960;0.314;2023-12-20T06:11:42;100396.66;;;3.00;100.00
64628;BME280;68467;50.960;0.314;2023-12-20T06:14:09;100390.53;;;3.15;100.00
64628;BME280;68467;50.960;0.314;2023-12-20T06:16:37;100389.86;;;3.01;100.00
64628;BME280;68467;50.960;0.314;2023-12-20T06:19:04;100390.61;;;3.06;100.00
64628;BME280;68467;50.960;0.314;2023-12-20T06:21:31;100393.45;;;2.99;100.00
64628;BME280;68467;50.960;0.314;2023-12-20T06:23:59;100393.14;;;3.03;100.00
64628;BME280;68467;50.960;0.314;2023-12-20T06:26:26;100393.50;;;3.22;100.00
64628;BME280;68467;50.960;0.314;2023-12-20T06:28:53;100392.52;;;2.72;100.00
64628;BME280;68467;50.960;0.314;2023-12-20T06:31:21;100394.04;;;3.00;100.00
64628;BME280;68467;50.960;0.314;2023-12-20T06:33:48;100383.47;;;3.17;100.00
64628;BME280;68467;50.960;0.314;2023-12-20T06:36:15;100387.40;;;2.85;100.00
64628;BME280;68467;50.960;0.314;2023-12-20T06:38:43;100390.13;;;2.97;100.00
64628;BME280;68467;50.960;0.314;2023-12-20T06:41:13;100397.77;;;2.75;100.00
64628;BME280;68467;50.960;0.314;2023-12-20T06:43:41;100407.40;;;3.26;100.00
64628;BME280;68467;50.960;0.314;2023-12-20T06:46:08;100406.40;;;2.77;100.00
64628;BME280;68467;50.960;0.314;2023-12-20T06:48:35;100406.68;;;3.23;100.00
64628;BME280;68467;50.960;0.314;2023-12-20T06:51:03;100403.28;;;3.05;100.00
64628;BME280;68467;50.960;0.314;2023-12-20T06:53:30;100403.19;;;3.44;100.00
64628;BME280;68467;50.960;0.314;2023-12-20T06:55:57;100409.92;;;3.69;100.00
64628;BME280;68467;50.960;0.314;2023-12-20T06:58:24;100410.19;;;3.38;100.00
64628;BME280;68467;50.960;0.314;2023-12-20T07:00:52;100409.21;;;3.76;100.00
64628;BME280;68467;50.960;0.314;2023-12-20T07:03:18;100406.04;;;3.48;100.00
64628;BME280;68467;50.960;0.314;2023-12-20T07:05:46;100407.68;;;3.01;100.00
64628;BME280;68467;50.960;0.314;2023-12-20T07:08:13;100417.81;;;3.19;100.00
64628;BME280;68467;50.960;0.314;2023-12-20T07:10:41;100407.97;;;3.37;100.00
64628;BME280;68467;50.960;0.314;2023-12-20T07:13:08;100407.77;;;3.88;100.00
64628;BME280;68467;50.960;0.314;2023-12-20T07:15:35;100399.50;;;3.67;100.00
64628;BME280;68467;50.960;0.314;2023-12-20T07:18:03;100400.76;;;3.38;100.00
64628;BME280;68467;50.960;0.314;2023-12-20T07:20:30;100397.92;;;3.55;100.00
64628;BME280;68467;50.960;0.314;2023-12-20T07:22:57;100394.98;;;4.30;100.00
64628;BME280;68467;50.960;0.314;2023-12-20T07:25:25;100395.11;;;3.95;100.00
64628;BME280;68467;50.960;0.314;2023-12-20T07:27:53;100394.49;;;4.09;100.00
64628;BME280;68467;50.960;0.314;2023-12-20T07:30:20;100399.60;;;3.64;100.00
64628;BME280;68467;50.960;0.314;2023-12-20T07:32:47;100403.73;;;3.49;100.00
64628;BME280;68467;50.960;0.314;2023-12-20T07:35:15;100403.50;;;3.74;100.00
64628;BME280;68467;50.960;0.314;2023-12-20T07:37:43;100402.38;;;4.00;100.00
64628;BME280;68467;50.960;0.314;2023-12-20T07:40:10;100400.39;;;3.68;100.00
64628;BME280;68467;50.960;0.314;2023-12-20T07:42:37;100400.85;;;3.53;100.00
64628;BME280;68467;50.960;0.314;2023-12-20T07:45:06;100396.86;;;3.44;100.00
64628;BME280;68467;50.960;0.314;2023-12-20T07:47:33;100404.31;;;3.92;100.00
64628;BME280;68467;50.960;0.314;2023-12-20T07:50:00;100412.17;;;3.83;100.00
64628;BME280;68467;50.960;0.314;2023-12-20T07:52:29;100410.03;;;3.44;100.00
64628;BME280;68467;50.960;0.314;2023-12-20T07:54:56;100415.86;;;3.87;100.00
64628;BME280;68467;50.960;0.314;2023-12-20T07:57:24;100414.79;;;4.00;100.00
64628;BME280;68467;50.960;0.314;2023-12-20T07:59:51;100416.98;;;4.14;100.00
64628;BME280;68467;50.960;0.314;2023-12-20T08:02:18;100413.36;;;4.26;100.00
64628;BME280;68467;50.960;0.314;2023-12-20T08:04:45;100413.22;;;4.13;100.00
64628;BME280;68467;50.960;0.314;2023-12-20T08:07:13;100405.00;;;4.00;100.00
64628;BME280;68467;50.960;0.314;2023-12-20T08:09:40;100405.12;;;3.97;100.00
64628;BME280;68467;50.960;0.314;2023-12-20T08:12:07;100408.84;;;4.41;100.00
64628;BME280;68467;50.960;0.314;2023-12-20T08:14:35;100413.60;;;4.38;100.00
64628;BME280;68467;50.960;0.314;2023-12-20T08:17:02;100413.25;;;4.16;100.00
64628;BME280;68467;50.960;0.314;2023-12-20T08:19:29;100415.04;;;4.09;100.00
64628;BME280;68467;50.960;0.314;2023-12-20T08:21:57;100414.81;;;4.34;100.00
64628;BME280;68467;50.960;0.314;2023-12-20T08:24:24;100410.98;;;4.61;100.00
64628;BME280;68467;50.960;0.314;2023-12-20T08:26:51;100411.07;;;3.75;100.00
64628;BME280;68467;50.960;0.314;2023-12-20T08:29:18;100418.45;;;4.25;100.00
64628;BME280;68467;50.960;0.314;2023-12-20T08:31:45;100429.37;;;4.83;100.00
64628;BME280;68467;50.960;0.314;2023-12-20T08:34:12;100424.88;;;4.31;100.00
64628;BME280;68467;50.960;0.314;2023-12-20T08:36:39;100425.99;;;4.35;100.00
64628;BME280;68467;50.960;0.314;2023-12-20T08:39:06;100412.40;;;3.96;100.00
64628;BME280;68467;50.960;0.314;2023-12-20T08:41:34;100409.30;;;4.37;100.00
64628;BME280;68467;50.960;0.314;2023-12-20T08:44:02;100409.82;;;5.04;100.00
64628;BME280;68467;50.960;0.314;2023-12-20T08:46:29;100419.51;;;4.89;100.00
64628;BME280;68467;50.960;0.314;2023-12-20T08:48:56;100423.77;;;4.39;100.00
64628;BME280;68467;50.960;0.314;2023-12-20T08:51:24;100428.60;;;5.05;100.00
64628;BME280;68467;50.960;0.314;2023-12-20T08:53:51;100430.25;;;5.01;100.00
64628;BME280;68467;50.960;0.314;2023-12-20T08:56:18;100436.70;;;4.61;100.00
64628;BME280;68467;50.960;0.314;2023-12-20T08:58:46;100435.43;;;4.92;100.00
64628;BME280;68467;50.960;0.314;2023-12-20T09:01:14;100424.94;;;4.90;100.00
64628;BME280;68467;50.960;0.314;2023-12-20T09:03:41;100425.96;;;4.76;100.00
64628;BME280;68467;50.960;0.314;2023-12-20T09:06:10;100414.39;;;4.67;100.00
64628;BME280;68467;50.960;0.314;2023-12-20T09:08:36;100428.42;;;4.60;100.00
64628;BME280;68467;50.960;0.314;2023-12-20T09:11:04;100432.39;;;4.71;100.00
64628;BME280;68467;50.960;0.314;2023-12-20T09:13:31;100433.11;;;5.16;100.00
64628;BME280;68467;50.960;0.314;2023-12-20T09:15:58;100440.60;;;5.09;100.00
64628;BME280;68467;50.960;0.314;2023-12-20T09:18:26;100421.74;;;5.45;100.00
64628;BME280;68467;50.960;0.314;2023-12-20T09:20:52;100420.59;;;5.18;100.00
64628;BME280;68467;50.960;0.314;2023-12-20T09:23:20;100411.20;;;5.00;100.00
64628;BME280;68467;50.960;0.314;2023-12-20T09:25:47;100410.33;;;5.18;100.00
64628;BME280;68467;50.960;0.314;2023-12-20T09:28:14;100412.34;;;5.59;100.00
64628;BME280;68467;50.960;0.314;2023-12-20T09:30:42;100410.25;;;5.50;100.00
64628;BME280;68467;50.960;0.314;2023-12-20T09:33:09;100415.78;;;5.25;100.00
64628;BME280;68467;50.960;0.314;2023-12-20T09:35:36;100414.97;;;5.37;100.00
64628;BME280;68467;50.960;0.314;2023-12-20T09:38:04;100409.44;;;5.67;100.00
64628;BME280;68467;50.960;0.314;2023-12-20T09:40:32;100406.58;;;5.14;100.00
64628;BME280;68467;50.960;0.314;2023-12-20T09:43:04;100410.57;;;5.47;100.00
64628;BME280;68467;50.960;0.314;2023-12-20T09:45:31;100409.14;;;5.74;100.00
64628;BME280;68467;50.960;0.314;2023-12-20T09:47:59;100405.79;;;5.55;100.00
64628;BME280;68467;50.960;0.314;2023-12-20T09:50:26;100412.72;;;6.13;100.00
64628;BME280;68467;50.960;0.314;2023-12-20T09:52:54;100407.64;;;6.23;100.00
64628;BME280;68467;50.960;0.314;2023-12-20T09:55:25;100410.36;;;6.44;100.00
64628;BME280;68467;50.960;0.314;2023-12-20T09:57:53;100415.50;;;6.06;100.00
64628;BME280;68467;50.960;0.314;2023-12-20T10:00:20;100425.12;;;6.20;100.00
64628;BME280;68467;50.960;0.314;2023-12-20T10:02:53;100436.55;;;5.92;100.00
64628;BME280;68467;50.960;0.314;2023-12-20T10:05:27;100437.44;;;6.67;100.00
64628;BME280;68467;50.960;0.314;2023-12-20T10:07:55;100436.96;;;6.95;100.00
64628;BME280;68467;50.960;0.314;2023-12-20T10:10:22;100432.36;;;6.74;100.00
64628;BME280;68467;50.960;0.314;2023-12-20T10:13:07;100419.65;;;7.42;100.00
64628;BME280;68467;50.960;0.314;2023-12-20T10:15:35;100425.61;;;6.90;100.00
64628;BME280;68467;50.960;0.314;2023-12-20T10:18:03;100425.74;;;7.32;100.00
64628;BME280;68467;50.960;0.314;2023-12-20T10:20:31;100427.16;;;6.61;100.00
64628;BME280;68467;50.960;0.314;2023-12-20T10:22:59;100436.83;;;6.65;100.00
64628;BME280;68467;50.960;0.314;2023-12-20T10:25:26;100432.45;;;7.46;100.00
64628;BME280;68467;50.960;0.314;2023-12-20T10:28:09;100422.92;;;6.97;100.00
64628;BME280;68467;50.960;0.314;2023-12-20T10:30:37;100423.42;;;7.00;100.00
64628;BME280;68467;50.960;0.314;2023-12-20T10:33:06;100421.72;;;6.96;100.00
64628;BME280;68467;50.960;0.314;2023-12-20T10:35:33;100413.89;;;7.45;100.00
64628;BME280;68467;50.960;0.314;2023-12-20T10:38:03;100406.58;;;7.12;100.00
64628;BME280;68467;50.960;0.314;2023-12-20T10:40:31;100397.97;;;6.99;100.00
64628;BME280;68467;50.960;0.314;2023-12-20T10:42:58;100392.61;;;7.16;100.00
64628;BME280;68467;50.960;0.314;2023-12-20T10:45:25;100392.64;;;7.06;100.00
64628;BME280;68467;50.960;0.314;2023-12-20T10:47:53;100388.60;;;7.43;100.00
64628;BME280;68467;50.960;0.314;2023-12-20T10:50:20;100386.35;;;7.65;100.00
64628;BME280;68467;50.960;0.314;2023-12-20T10:52:47;100371.99;;;7.51;100.00
64628;BME280;68467;50.960;0.314;2023-12-20T10:55:14;100380.08;;;6.83;100.00
64628;BME280;68467;50.960;0.314;2023-12-20T10:57:42;100376.03;;;7.62;100.00
64628;BME280;68467;50.960;0.314;2023-12-20T11:00:12;100371.48;;;7.47;100.00
64628;BME280;68467;50.960;0.314;2023-12-20T11:02:41;100366.43;;;7.99;100.00
64628;BME280;68467;50.960;0.314;2023-12-20T11:05:22;100364.66;;;7.36;100.00
64628;BME280;68467;50.960;0.314;2023-12-20T11:07:55;100359.05;;;7.14;100.00
64628;BME280;68467;50.960;0.314;2023-12-20T11:10:29;100355.77;;;7.14;100.00
64628;BME280;68467;50.960;0.314;2023-12-20T11:13:01;100351.96;;;7.43;100.00
64628;BME280;68467;50.960;0.314;2023-12-20T11:15:31;100346.73;;;7.37;100.00
64628;BME280;68467;50.960;0.314;2023-12-20T11:18:00;100347.00;;;7.39;100.00
64628;BME280;68467;50.960;0.314;2023-12-20T11:20:36;100340.93;;;7.95;100.00
64628;BME280;68467;50.960;0.314;2023-12-20T11:23:04;100342.95;;;6.95;100.00
64628;BME280;68467;50.960;0.314;2023-12-20T11:25:47;100338.48;;;7.03;100.00
64628;BME280;68467;50.960;0.314;2023-12-20T11:28:15;100345.86;;;6.92;100.00
64628;BME280;68467;50.960;0.314;2023-12-20T11:30:45;100329.62;;;6.71;100.00
64628;BME280;68467;50.960;0.314;2023-12-20T11:33:13;100322.69;;;7.32;100.00
64628;BME280;68467;50.960;0.314;2023-12-20T11:35:42;100323.75;;;7.36;100.00
64628;BME280;68467;50.960;0.314;2023-12-20T11:38:09;100328.14;;;6.75;100.00
64628;BME280;68467;50.960;0.314;2023-12-20T11:40:37;100324.73;;;7.04;100.00
64628;BME280;68467;50.960;0.314;2023-12-20T11:43:05;100323.20;;;7.67;100.00
64628;BME280;68467;50.960;0.314;2023-12-20T11:45:32;100319.28;;;7.20;100.00
64628;BME280;68467;50.960;0.314;2023-12-20T11:47:59;100313.08;;;7.62;100.00
64628;BME280;68467;50.960;0.314;2023-12-20T11:50:26;100308.86;;;7.03;100.00
64628;BME280;68467;50.960;0.314;2023-12-20T11:52:53;100300.89;;;6.67;100.00
64628;BME280;68467;50.960;0.314;2023-12-20T11:55:21;100305.42;;;6.76;100.00
64628;BME280;68467;50.960;0.314;2023-12-20T11:57:50;100290.23;;;6.90;100.00
64628;BME280;68467;50.960;0.314;2023-12-20T12:00:18;100281.51;;;7.13;100.00
64628;BME280;68467;50.960;0.314;2023-12-20T12:02:55;100280.45;;;7.07;100.00
64628;BME280;68467;50.960;0.314;2023-12-20T12:05:22;100277.89;;;7.74;100.00
64628;BME280;68467;50.960;0.314;2023-12-20T12:07:49;100272.51;;;7.01;100.00
64628;BME280;68467;50.960;0.314;2023-12-20T12:10:16;100273.22;;;7.12;100.00
64628;BME280;68467;50.960;0.314;2023-12-20T12:12:44;100271.83;;;6.95;100.00
64628;BME280;68467;50.960;0.314;2023-12-20T12:15:11;100260.93;;;7.18;100.00
64628;BME280;68467;50.960;0.314;2023-12-20T12:17:38;100252.66;;;7.26;100.00
64628;BME280;68467;50.960;0.314;2023-12-20T12:20:07;100253.58;;;6.97;100.00
64628;BME280;68467;50.960;0.314;2023-12-20T12:22:34;100246.28;;;7.38;100.00
64628;BME280;68467;50.960;0.314;2023-12-20T12:25:10;100235.42;;;6.95;100.00
64628;BME280;68467;50.960;0.314;2023-12-20T12:27:40;100220.90;;;7.13;100.00
64628;BME280;68467;50.960;0.314;2023-12-20T12:30:09;100222.12;;;7.07;100.00
64628;BME280;68467;50.960;0.314;2023-12-20T12:32:36;100223.49;;;6.98;100.00
64628;BME280;68467;50.960;0.314;2023-12-20T12:35:04;100216.72;;;7.44;100.00
64628;BME280;68467;50.960;0.314;2023-12-20T12:37:31;100213.82;;;7.49;100.00
64628;BME280;68467;50.960;0.314;2023-12-20T12:39:58;100206.95;;;7.44;100.00
64628;BME280;68467;50.960;0.314;2023-12-20T12:42:25;100207.56;;;7.30;100.00
64628;BME280;68467;50.960;0.314;2023-12-20T12:44:52;100204.87;;;7.20;100.00
64628;BME280;68467;50.960;0.314;2023-12-20T12:47:19;100203.03;;;7.34;100.00
64628;BME280;68467;50.960;0.314;2023-12-20T12:49:46;100200.27;;;7.28;100.00
64628;BME280;68467;50.960;0.314;2023-12-20T12:52:13;100197.50;;;7.59;100.00